createdAt,value
2023-01-26T00:00:22.239Z,18.50
2023-01-26T00:02:53.114Z,18.55
2023-01-26T00:05:21.262Z,18.77
2023-01-26T00:07:51.171Z,17.35
2023-01-26T00:10:19.687Z,18.85
2023-01-26T00:12:48.202Z,17.52
2023-01-26T00:15:18.172Z,16.75
2023-01-26T00:17:46.567Z,19.33
2023-01-26T00:20:15.137Z,18.80
2023-01-26T00:22:44.603Z,19.02
2023-01-26T00:25:13.165Z,18.73
2023-01-26T00:27:41.529Z,18.67
2023-01-26T00:30:11.280Z,17.98
2023-01-26T00:32:41.566Z,19.88
2023-01-26T00:35:12.986Z,17.67
2023-01-26T00:37:43.265Z,20.60
2023-01-26T00:40:12.676Z,17.73
2023-01-26T00:42:42.015Z,19.27
2023-01-26T00:45:10.921Z,24.20
2023-01-26T00:47:40.683Z,19.58
2023-01-26T00:50:12.267Z,19.95
2023-01-26T00:52:40.710Z,18.52
2023-01-26T00:55:10.114Z,20.13
2023-01-26T00:57:38.228Z,17.75
2023-01-26T01:00:11.007Z,22.88
2023-01-26T01:02:41.022Z,19.65
2023-01-26T01:05:10.214Z,20.20
2023-01-26T01:07:39.462Z,19.95
2023-01-26T01:10:10.857Z,20.42
2023-01-26T01:12:46.113Z,21.38
2023-01-26T01:15:14.860Z,22.23
2023-01-26T01:17:47.895Z,22.33
2023-01-26T01:20:16.212Z,20.23
2023-01-26T01:22:44.360Z,23.42
2023-01-26T01:25:12.794Z,21.25
2023-01-26T01:27:43.424Z,19.27
2023-01-26T01:30:15.338Z,21.95
2023-01-26T01:32:46.062Z,18.95
2023-01-26T01:35:14.112Z,21.65
2023-01-26T01:37:42.308Z,19.27
2023-01-26T01:40:15.329Z,16.85
2023-01-26T01:42:52.374Z,20.27
2023-01-26T01:45:42.034Z,21.55
2023-01-26T01:48:22.070Z,19.27
2023-01-26T01:50:56.206Z,19.75
2023-01-26T01:53:34.611Z,19.73
2023-01-26T01:56:08.117Z,21.00
2023-01-26T01:58:40.395Z,18.77
2023-01-26T02:01:09.810Z,17.50
2023-01-26T02:03:42.613Z,18.70
2023-01-26T02:06:15.663Z,22.15
2023-01-26T02:08:48.838Z,24.63
2023-01-26T02:11:22.000Z,22.80
2023-01-26T02:13:51.157Z,24.38
2023-01-26T02:16:20.780Z,24.85
2023-01-26T02:18:50.451Z,26.25
2023-01-26T02:21:20.487Z,26.33
2023-01-26T02:24:01.809Z,29.40
2023-01-26T02:26:34.051Z,23.15
2023-01-26T02:29:06.739Z,27.42
2023-01-26T02:31:35.118Z,26.67
2023-01-26T02:34:03.454Z,25.60
2023-01-26T02:36:33.540Z,22.90
2023-01-26T02:39:24.946Z,35.58
2023-01-26T02:42:12.911Z,33.10
2023-01-26T02:44:46.051Z,31.52
2023-01-26T02:47:15.497Z,34.50
2023-01-26T02:49:50.592Z,33.55
2023-01-26T02:52:21.798Z,29.42
2023-01-26T02:55:07.376Z,30.42
2023-01-26T02:57:37.253Z,31.92
2023-01-26T03:00:07.034Z,31.48
2023-01-26T03:02:35.200Z,27.65
2023-01-26T03:05:04.848Z,27.77
2023-01-26T03:07:33.520Z,29.17
2023-01-26T03:10:06.046Z,26.50
2023-01-26T03:12:34.525Z,25.75
2023-01-26T03:15:22.384Z,31.17
2023-01-26T03:17:50.572Z,37.72
2023-01-26T03:20:36.466Z,36.15
2023-01-26T03:23:33.517Z,35.08
2023-01-26T03:26:15.537Z,33.97
2023-01-26T03:28:45.432Z,24.42
2023-01-26T03:31:15.216Z,34.33
2023-01-26T03:33:43.453Z,30.35
2023-01-26T03:36:11.757Z,38.67
2023-01-26T03:38:40.238Z,36.00
2023-01-26T03:41:25.936Z,28.92
2023-01-26T03:44:11.791Z,32.33
2023-01-26T03:47:01.580Z,38.72
2023-01-26T03:49:46.947Z,32.65
2023-01-26T03:52:32.222Z,38.67
2023-01-26T03:55:17.546Z,28.23
2023-01-26T03:57:45.469Z,31.10
2023-01-26T04:00:16.096Z,32.70
2023-01-26T04:03:03.392Z,36.72
2023-01-26T04:05:48.925Z,34.67
2023-01-26T04:08:23.994Z,31.40
2023-01-26T04:10:52.813Z,38.13
2023-01-26T04:13:39.713Z,38.03
2023-01-26T04:16:26.252Z,38.78
2023-01-26T04:19:13.581Z,31.75
2023-01-26T04:21:42.469Z,41.67
2023-01-26T04:24:16.641Z,32.92
2023-01-26T04:26:45.890Z,39.60
2023-01-26T04:29:18.048Z,36.45
2023-01-26T04:31:46.337Z,37.90
2023-01-26T04:34:17.648Z,35.33
2023-01-26T04:36:46.604Z,30.55
2023-01-26T04:39:15.038Z,33.45
2023-01-26T04:41:43.421Z,34.10
2023-01-26T04:44:12.060Z,31.77
2023-01-26T04:46:42.231Z,34.63
2023-01-26T04:49:10.701Z,34.55
2023-01-26T04:51:40.506Z,35.55
2023-01-26T04:54:09.063Z,33.22
2023-01-26T04:56:37.772Z,35.83
2023-01-26T04:59:08.690Z,32.90
2023-01-26T05:01:38.484Z,32.22
2023-01-26T05:04:08.476Z,28.90
2023-01-26T05:06:36.888Z,30.75
2023-01-26T05:09:08.037Z,27.70
2023-01-26T05:11:36.291Z,30.40
2023-01-26T05:14:04.707Z,33.75
2023-01-26T05:16:33.345Z,31.52
2023-01-26T05:19:03.593Z,31.17
2023-01-26T05:21:33.967Z,30.23
2023-01-26T05:24:02.112Z,33.40
2023-01-26T05:26:31.875Z,33.22
2023-01-26T05:29:07.107Z,30.67
2023-01-26T05:31:37.921Z,31.55
2023-01-26T05:34:06.440Z,30.63
2023-01-26T05:36:34.563Z,25.15
2023-01-26T05:39:06.294Z,26.73
2023-01-26T05:41:36.151Z,25.42
2023-01-26T05:44:04.574Z,22.35
2023-01-26T05:46:33.394Z,34.15
2023-01-26T05:49:03.252Z,30.33
2023-01-26T05:51:50.782Z,30.95
2023-01-26T05:54:38.559Z,28.35
2023-01-26T05:57:08.755Z,30.83
2023-01-26T05:59:40.101Z,30.75
2023-01-26T06:02:08.463Z,33.45
2023-01-26T06:04:37.224Z,25.98
2023-01-26T06:07:05.830Z,28.35
2023-01-26T06:09:36.097Z,29.17
2023-01-26T06:12:04.363Z,27.75
2023-01-26T06:17:32.270Z,32.28
2023-01-26T06:20:06.296Z,32.33
2023-01-26T06:22:34.677Z,35.30
2023-01-26T06:25:03.592Z,33.05
2023-01-26T06:27:31.748Z,28.58
2023-01-26T06:30:05.569Z,29.42
2023-01-26T06:32:34.137Z,34.28
2023-01-26T06:35:03.422Z,32.45
2023-01-26T06:37:33.995Z,33.75
2023-01-26T06:40:20.002Z,28.38
2023-01-26T06:42:51.523Z,32.72
2023-01-26T06:45:23.409Z,33.63
2023-01-26T06:47:53.209Z,31.00
2023-01-26T06:50:27.286Z,35.25
2023-01-26T06:52:57.465Z,31.63
2023-01-26T06:55:43.043Z,35.40
2023-01-26T06:58:12.201Z,36.00
2023-01-26T07:00:41.814Z,33.10
2023-01-26T07:03:11.329Z,33.90
2023-01-26T07:05:39.790Z,33.78
2023-01-26T07:08:09.139Z,40.33
2023-01-26T07:10:41.787Z,31.67
2023-01-26T07:13:09.831Z,32.63
2023-01-26T07:15:38.134Z,35.60
2023-01-26T07:18:09.191Z,37.13
2023-01-26T07:20:38.665Z,36.53
2023-01-26T07:23:07.089Z,28.98
2023-01-26T07:25:35.470Z,34.25
2023-01-26T07:28:03.567Z,34.30
2023-01-26T07:33:23.125Z,34.25
2023-01-26T07:35:54.395Z,30.45
2023-01-26T07:38:29.897Z,34.30
2023-01-26T07:40:58.929Z,27.17
2023-01-26T07:43:27.032Z,29.92
2023-01-26T07:45:56.620Z,32.47
2023-01-26T07:48:27.619Z,32.75
2023-01-26T07:50:55.835Z,33.92
2023-01-26T07:53:26.290Z,35.95
2023-01-26T07:56:03.861Z,34.03
2023-01-26T07:58:32.379Z,38.95
2023-01-26T08:01:07.177Z,35.50
2023-01-26T08:03:39.191Z,34.70
2023-01-26T08:06:10.910Z,33.22
2023-01-26T08:08:41.278Z,32.08
2023-01-26T08:11:10.278Z,30.83
2023-01-26T08:13:39.185Z,31.75
2023-01-26T08:16:12.433Z,33.40
2023-01-26T08:21:28.350Z,42.22
2023-01-26T08:24:01.924Z,34.00
2023-01-26T08:26:31.989Z,41.50
2023-01-26T08:29:02.563Z,37.00
2023-01-26T08:31:31.102Z,37.70
2023-01-26T08:34:02.536Z,46.50
2023-01-26T08:36:31.238Z,35.35
2023-01-26T08:39:02.734Z,34.17
2023-01-26T08:41:35.032Z,41.28
2023-01-26T08:44:03.250Z,36.92
2023-01-26T08:46:32.643Z,32.28
2023-01-26T08:49:03.008Z,36.28
2023-01-26T08:51:31.389Z,35.88
2023-01-26T08:54:00.515Z,41.45
2023-01-26T08:56:30.637Z,39.13
2023-01-26T08:58:59.930Z,39.33
2023-01-26T09:01:28.218Z,35.85
2023-01-26T09:03:56.808Z,30.38
2023-01-26T09:06:28.929Z,31.00
2023-01-26T09:08:57.575Z,35.45
2023-01-26T09:11:25.576Z,34.15
2023-01-26T09:13:56.682Z,35.00
2023-01-26T09:16:26.084Z,29.17
2023-01-26T09:18:55.105Z,31.08
2023-01-26T09:21:24.118Z,30.15
2023-01-26T09:23:54.235Z,32.35
2023-01-26T09:26:22.564Z,29.85
2023-01-26T09:28:52.804Z,33.40
2023-01-26T09:31:23.417Z,30.55
2023-01-26T09:33:52.145Z,31.05
2023-01-26T09:36:20.565Z,33.30
2023-01-26T09:38:48.877Z,31.42
2023-01-26T09:41:59.537Z,30.55
2023-01-26T09:44:53.723Z,30.50
2023-01-26T09:47:47.002Z,32.72
2023-01-26T09:50:27.865Z,32.72
2023-01-26T09:53:31.329Z,33.28
2023-01-26T09:56:05.666Z,31.95
2023-01-26T09:59:37.377Z,33.97
2023-01-26T10:02:35.017Z,31.38
2023-01-26T10:05:12.790Z,28.00
2023-01-26T10:08:00.716Z,30.17
2023-01-26T10:10:36.423Z,35.28
2023-01-26T10:13:06.315Z,31.42
2023-01-26T10:15:43.926Z,34.47
2023-01-26T10:18:21.346Z,27.98
2023-01-26T10:20:54.364Z,32.35
2023-01-26T10:24:02.642Z,34.20
2023-01-26T10:26:44.744Z,30.23
2023-01-26T10:29:33.044Z,35.40
2023-01-26T10:32:18.211Z,33.28
2023-01-26T10:35:37.390Z,39.40
2023-01-26T10:38:42.813Z,34.50
2023-01-26T10:41:31.822Z,35.20
2023-01-26T10:44:02.628Z,29.50
2023-01-26T10:46:39.999Z,35.15
2023-01-26T10:49:22.289Z,32.80
2023-01-26T10:52:28.178Z,32.22
2023-01-26T10:55:42.276Z,36.83
2023-01-26T10:58:50.938Z,31.70
2023-01-26T11:01:41.700Z,32.40
2023-01-26T11:04:27.147Z,35.05
2023-01-26T11:07:00.703Z,33.10
2023-01-26T11:09:47.199Z,36.88
2023-01-26T11:12:30.791Z,34.20
2023-01-26T11:15:20.843Z,30.20
2023-01-26T11:17:56.640Z,31.88
2023-01-26T11:20:46.329Z,32.22
2023-01-26T11:23:35.486Z,40.70
2023-01-26T11:26:32.181Z,35.08
2023-01-26T11:29:27.902Z,33.47
2023-01-26T11:32:10.544Z,32.05
2023-01-26T11:34:50.758Z,31.67
2023-01-26T11:37:40.675Z,34.78
2023-01-26T11:40:27.072Z,41.67
2023-01-26T11:43:14.227Z,36.97
2023-01-26T11:45:59.982Z,32.25
2023-01-26T11:51:43.005Z,36.42
2023-01-26T11:54:36.864Z,37.80
2023-01-26T11:57:15.029Z,35.50
2023-01-26T11:59:47.641Z,40.80
2023-01-26T12:02:29.284Z,47.90
2023-01-26T12:05:01.168Z,39.15
2023-01-26T12:07:55.476Z,47.95
2023-01-26T12:10:34.605Z,46.70
2023-01-26T12:13:23.405Z,43.75
2023-01-26T12:16:17.531Z,47.97
2023-01-26T12:19:10.073Z,42.88
2023-01-26T12:21:44.286Z,36.83
2023-01-26T12:24:43.432Z,41.47
2023-01-26T12:27:14.994Z,33.25
2023-01-26T12:29:51.519Z,39.53
2023-01-26T12:32:22.804Z,38.40
2023-01-26T12:34:54.971Z,49.25
2023-01-26T12:37:47.600Z,45.72
2023-01-26T12:40:31.776Z,35.65
2023-01-26T12:43:31.392Z,39.63
2023-01-26T12:46:05.104Z,39.13
2023-01-26T12:48:42.851Z,32.00
2023-01-26T12:51:19.120Z,47.03
2023-01-26T12:54:05.187Z,35.83
2023-01-26T12:56:39.569Z,35.10
2023-01-26T12:59:46.385Z,40.60
2023-01-26T13:02:22.468Z,36.70
2023-01-26T13:05:09.236Z,33.85
2023-01-26T13:07:42.463Z,41.35
2023-01-26T13:10:30.979Z,40.08
2023-01-26T13:13:01.319Z,42.38
2023-01-26T13:15:36.821Z,33.85
2023-01-26T13:18:35.925Z,41.13
2023-01-26T13:24:50.235Z,38.50
2023-01-26T13:27:32.782Z,43.40
2023-01-26T13:30:32.265Z,39.25
2023-01-26T13:33:12.864Z,45.83
2023-01-26T13:35:43.801Z,40.75
2023-01-26T13:38:24.453Z,44.95
2023-01-26T13:40:59.498Z,43.65
2023-01-26T13:43:42.182Z,39.72
2023-01-26T13:46:25.233Z,38.42
2023-01-26T13:48:56.427Z,60.70
2023-01-26T13:51:30.299Z,46.72
2023-01-26T13:54:01.713Z,39.65
2023-01-26T13:56:36.689Z,40.65
2023-01-26T13:59:38.682Z,45.15
2023-01-26T14:02:26.397Z,45.90
2023-01-26T14:05:16.602Z,40.47
2023-01-26T14:07:46.337Z,43.42
2023-01-26T14:10:20.024Z,46.28
2023-01-26T14:12:56.622Z,42.75
2023-01-26T14:15:33.679Z,42.03
2023-01-26T14:18:26.009Z,38.88
2023-01-26T14:21:14.288Z,41.58
2023-01-26T14:24:08.252Z,40.65
2023-01-26T14:26:40.202Z,43.55
2023-01-26T14:29:49.522Z,42.28
2023-01-26T14:32:18.093Z,42.22
2023-01-26T14:35:05.842Z,48.13
2023-01-26T14:37:44.967Z,45.03
2023-01-26T14:40:30.063Z,40.72
2023-01-26T14:43:06.668Z,42.97
2023-01-26T14:46:06.567Z,40.90
2023-01-26T14:48:59.230Z,43.88
2023-01-26T14:51:29.827Z,41.42
2023-01-26T14:54:09.518Z,43.75
2023-01-26T14:56:41.334Z,41.15
2023-01-26T14:59:21.468Z,40.53
2023-01-26T15:02:04.968Z,41.50
2023-01-26T15:04:44.193Z,36.55
2023-01-26T15:07:42.206Z,44.65
2023-01-26T15:10:38.553Z,39.72
2023-01-26T15:13:25.793Z,39.50
2023-01-26T15:16:08.061Z,36.45
2023-01-26T15:18:40.076Z,39.40
2023-01-26T15:21:23.444Z,40.55
2023-01-26T15:23:59.746Z,39.38
2023-01-26T15:26:31.497Z,38.28
2023-01-26T15:29:05.855Z,37.95
2023-01-26T15:31:42.829Z,38.80
2023-01-26T15:34:36.630Z,36.55
2023-01-26T15:37:38.091Z,40.33
2023-01-26T15:40:18.593Z,37.38
2023-01-26T15:42:50.816Z,37.55
2023-01-26T15:45:29.625Z,36.63
2023-01-26T15:48:25.662Z,37.35
2023-01-26T15:54:02.137Z,33.65
2023-01-26T15:56:52.616Z,31.50
2023-01-26T15:59:58.167Z,34.30
2023-01-26T16:02:36.991Z,33.17
2023-01-26T16:05:16.250Z,33.63
2023-01-26T16:07:49.100Z,30.10
2023-01-26T16:10:53.896Z,32.63
2023-01-26T16:13:26.230Z,33.22
2023-01-26T16:16:30.073Z,29.17
2023-01-26T16:19:00.677Z,30.77
2023-01-26T16:21:33.741Z,30.40
2023-01-26T16:24:07.403Z,31.00
2023-01-26T16:26:39.729Z,30.92
2023-01-26T16:29:12.529Z,29.67
2023-01-26T16:31:45.999Z,31.67
2023-01-26T16:34:45.334Z,30.25
2023-01-26T16:37:33.474Z,28.52
2023-01-26T16:40:06.715Z,28.20
2023-01-26T16:42:38.601Z,25.27
2023-01-26T16:45:37.841Z,28.48
2023-01-26T16:48:14.152Z,29.38
2023-01-26T16:50:46.304Z,27.42
2023-01-26T16:53:24.742Z,27.27
2023-01-26T16:55:55.232Z,27.90
2023-01-26T16:58:26.852Z,27.50
2023-01-26T17:01:00.423Z,26.85
2023-01-26T17:03:34.142Z,26.35
2023-01-26T17:06:07.512Z,25.50
2023-01-26T17:08:36.350Z,25.52
2023-01-26T17:11:12.105Z,26.40
2023-01-26T17:13:40.539Z,28.20
2023-01-26T17:16:16.352Z,28.90
2023-01-26T17:18:48.525Z,27.40
2023-01-26T17:21:46.294Z,26.98
2023-01-26T17:24:47.201Z,28.85
2023-01-26T17:30:14.341Z,23.90
2023-01-26T17:32:47.354Z,24.35
2023-01-26T17:35:17.657Z,22.25
2023-01-26T17:37:52.235Z,22.65
2023-01-26T17:40:20.870Z,21.73
2023-01-26T17:42:53.468Z,22.70
2023-01-26T17:45:39.855Z,23.02
2023-01-26T17:48:12.665Z,21.95
2023-01-26T17:50:49.843Z,20.63
2023-01-26T17:53:18.964Z,20.90
2023-01-26T17:55:49.508Z,20.90
2023-01-26T17:58:20.381Z,20.10
2023-01-26T18:00:50.030Z,20.85
2023-01-26T18:03:18.387Z,20.05
2023-01-26T18:05:55.802Z,21.65
2023-01-26T18:08:24.374Z,23.90
2023-01-26T18:11:00.224Z,17.75
2023-01-26T18:13:31.687Z,23.05
2023-01-26T18:16:04.553Z,20.20
2023-01-26T18:18:34.841Z,20.25
2023-01-26T18:21:14.559Z,20.35
2023-01-26T18:23:54.934Z,21.50
2023-01-26T18:26:34.197Z,19.98
2023-01-26T18:29:07.995Z,19.15
2023-01-26T18:31:51.725Z,17.80
2023-01-26T18:34:27.950Z,20.15
2023-01-26T18:36:56.345Z,20.25
2023-01-26T18:39:31.016Z,16.20
2023-01-26T18:42:01.485Z,18.30
2023-01-26T18:44:33.044Z,18.45
2023-01-26T18:47:01.716Z,18.63
2023-01-26T18:49:30.155Z,16.05
2023-01-26T18:51:58.652Z,15.57
2023-01-26T18:54:29.429Z,19.27
2023-01-26T18:56:58.220Z,17.58
2023-01-26T18:59:26.898Z,15.20
2023-01-26T19:01:56.790Z,15.45
2023-01-26T19:04:25.233Z,17.30
2023-01-26T19:06:53.554Z,14.45
2023-01-26T19:09:22.555Z,17.63
2023-01-26T19:11:51.367Z,17.02
2023-01-26T19:14:19.898Z,16.50
2023-01-26T19:16:49.452Z,15.88
2023-01-26T19:19:19.139Z,15.40
2023-01-26T19:21:47.552Z,15.57
2023-01-26T19:24:15.785Z,16.02
2023-01-26T19:26:44.460Z,15.63
2023-01-26T19:29:12.807Z,15.52
2023-01-26T19:31:41.324Z,17.50
2023-01-26T19:34:24.709Z,17.50
2023-01-26T19:36:56.664Z,16.15
2023-01-26T19:39:27.230Z,16.13
2023-01-26T19:41:55.723Z,16.20
2023-01-26T19:44:31.283Z,16.02
2023-01-26T19:46:59.371Z,15.52
2023-01-26T19:49:27.657Z,15.68
2023-01-26T19:51:59.014Z,13.70
2023-01-26T19:54:29.983Z,16.10
2023-01-26T19:57:03.706Z,15.00
2023-01-26T19:59:33.356Z,12.68
2023-01-26T20:02:03.573Z,13.73
2023-01-26T20:04:33.878Z,13.20
2023-01-26T20:07:07.804Z,12.73
2023-01-26T20:09:36.737Z,14.75
2023-01-26T20:12:07.252Z,14.77
2023-01-26T20:14:36.167Z,13.00
2023-01-26T20:17:10.493Z,14.55
2023-01-26T20:19:39.134Z,14.55
2023-01-26T20:22:09.269Z,14.75
2023-01-26T20:24:40.767Z,13.95
2023-01-26T20:27:11.537Z,12.35
2023-01-26T20:29:56.063Z,16.25
2023-01-26T20:32:25.167Z,13.95
2023-01-26T20:34:54.124Z,11.90
2023-01-26T20:37:24.168Z,14.70
2023-01-26T20:39:52.579Z,13.25
2023-01-26T20:42:23.172Z,14.98
2023-01-26T20:44:51.585Z,16.13
2023-01-26T20:47:22.455Z,15.10
2023-01-26T20:49:50.876Z,16.63
2023-01-26T20:52:20.597Z,15.98
2023-01-26T20:54:51.845Z,15.60
2023-01-26T20:57:20.183Z,16.70
2023-01-26T20:59:50.042Z,19.00
2023-01-26T21:02:19.490Z,14.90
2023-01-26T21:04:48.827Z,14.77
2023-01-26T21:07:19.120Z,14.52
2023-01-26T21:09:47.997Z,14.68
2023-01-26T21:12:20.428Z,14.27
2023-01-26T21:14:48.841Z,15.57
2023-01-26T21:17:19.527Z,16.20
2023-01-26T21:19:52.511Z,17.35
2023-01-26T21:22:23.017Z,14.63
2023-01-26T21:24:51.521Z,14.75
2023-01-26T21:27:24.051Z,13.98
2023-01-26T21:29:52.317Z,12.05
2023-01-26T21:32:21.103Z,12.27
2023-01-26T21:34:49.563Z,12.13
2023-01-26T21:37:19.406Z,12.07
2023-01-26T21:39:47.806Z,14.57
2023-01-26T21:42:16.131Z,11.27
2023-01-26T21:45:03.285Z,9.15
2023-01-26T21:47:31.296Z,15.63
2023-01-26T21:49:59.748Z,12.25
2023-01-26T21:52:45.522Z,13.40
2023-01-26T21:55:13.766Z,12.00
2023-01-26T21:57:59.375Z,12.32
2023-01-26T22:00:30.623Z,12.90
2023-01-26T22:03:02.369Z,12.45
2023-01-26T22:05:30.788Z,12.43
2023-01-26T22:08:49.061Z,12.27
2023-01-26T22:11:48.138Z,11.32
2023-01-26T22:14:37.440Z,12.00
2023-01-26T22:17:07.213Z,12.38
2023-01-26T22:19:37.439Z,10.75
2023-01-26T22:22:07.302Z,10.00
2023-01-26T22:24:35.715Z,9.75
2023-01-26T22:27:05.261Z,10.90
2023-01-26T22:29:33.587Z,10.73
2023-01-26T22:32:02.741Z,11.82
2023-01-26T22:34:33.520Z,10.93
2023-01-26T22:37:01.718Z,10.85
2023-01-26T22:39:29.832Z,12.57
2023-01-26T22:41:57.872Z,9.00
2023-01-26T22:44:27.222Z,11.32
2023-01-26T22:46:55.857Z,11.13
2023-01-26T22:49:24.306Z,10.73
2023-01-26T22:51:54.047Z,10.73
2023-01-26T22:54:22.809Z,10.02
2023-01-26T22:56:52.826Z,10.25
2023-01-26T22:59:21.566Z,10.73
2023-01-26T23:01:50.106Z,11.20
2023-01-26T23:04:18.457Z,11.50
2023-01-26T23:06:48.046Z,11.63
2023-01-26T23:09:17.877Z,12.02
2023-01-26T23:11:46.332Z,9.65
2023-01-26T23:14:14.692Z,11.23
2023-01-26T23:16:42.768Z,11.13
2023-01-26T23:19:10.909Z,12.13
2023-01-26T23:21:39.231Z,9.15
2023-01-26T23:24:08.917Z,11.07
2023-01-26T23:26:38.669Z,11.55
2023-01-26T23:29:07.338Z,13.13
2023-01-26T23:31:36.645Z,11.32
2023-01-26T23:34:05.215Z,10.10
2023-01-26T23:36:33.286Z,11.45
2023-01-26T23:39:01.725Z,11.70
2023-01-26T23:41:29.985Z,11.88
2023-01-26T23:44:00.671Z,9.15
2023-01-26T23:46:31.017Z,10.57
2023-01-26T23:49:01.391Z,9.77
2023-01-26T23:51:33.207Z,9.80
2023-01-26T23:54:01.376Z,8.55
2023-01-26T23:56:29.808Z,10.05
2023-01-26T23:59:00.965Z,10.43
